Time;durP1;ratioP1;P1;durP2;ratioP2;P2;SDS_P1;SDS_P2;PMS_P1;PMS_P2;Temp;Humidity;BMP_temperature;BMP_pressure;BME280_temperature;BME280_humidity;BME280_pressure;Samples;Min_cycle;Max_cycle;Signal;HPM_P1;HPM_P2
2021/06/10 00:02:12;;;;;;;11.40;4.55;;;;;;;15.13;94.32;99336.25;1706026;84;21398;-84
2021/06/10 00:05:19;;;;;;;9.95;3.62;;;;;;;15.15;94.58;99347.03;1705789;84;21342;-83
2021/06/10 00:08:25;;;;;;;5.70;3.60;;;;;;;15.19;95.12;99342.21;1706555;84;21298;-84
2021/06/10 00:11:32;;;;;;;4.35;2.60;;;;;;;15.19;94.53;99344.97;1706567;84;21187;-85
2021/06/10 00:14:36;;;;;;;7.20;2.70;;;;;;;15.12;93.58;99341.47;1684359;84;21251;-84
2021/06/10 00:17:41;;;;;;;5.37;2.37;;;;;;;15.08;92.92;99339.70;1705737;84;21322;-84
2021/06/10 00:20:48;;;;;;;7.00;2.77;;;;;;;15.03;92.52;99343.67;1705210;84;21350;-85
2021/06/10 00:23:54;;;;;;;6.05;2.72;;;;;;;14.96;92.17;99337.41;1706578;84;21299;-84
2021/06/10 00:26:59;;;;;;;4.25;3.10;;;;;;;14.89;91.84;99336.63;1706725;83;21836;-84
2021/06/10 00:30:03;;;;;;;8.13;3.00;;;;;;;14.82;91.88;99341.38;1684809;84;21844;-84
2021/06/10 00:33:03;;;;;;;6.58;2.92;;;;;;;14.78;92.30;99340.14;1706654;84;21314;-84
2021/06/10 00:35:56;;;;;;;6.75;3.25;;;;;;;14.72;92.50;99341.87;1706793;84;21215;-84
2021/06/10 00:38:42;;;;;;;9.75;3.60;;;;;;;14.71;92.59;99339.35;1706721;84;21298;-84
2021/06/10 00:41:47;;;;;;;10.32;3.80;;;;;;;14.67;92.82;99336.73;1683145;84;21331;-84
2021/06/10 00:44:52;;;;;;;6.05;3.70;;;;;;;14.64;93.17;99338.05;1706661;84;21781;-84
2021/06/10 00:47:59;;;;;;;4.20;3.77;;;;;;;14.64;93.52;99334.46;1706329;84;21348;-84
2021/06/10 00:51:07;;;;;;;6.55;3.27;;;;;;;14.63;93.84;99339.63;1655626;85;21322;-84
2021/06/10 00:54:12;;;;;;;1.98;1.77;;;;;;;14.62;93.71;99337.95;1686660;84;21324;-84
2021/06/10 00:57:18;;;;;;;2.83;1.55;;;;;;;14.56;92.87;99341.92;1706430;84;21220;-84
2021/06/10 01:00:23;;;;;;;7.00;4.08;;;;;;;14.41;91.57;99332.30;1706106;84;21761;-84
2021/06/10 01:03:29;;;;;;;12.03;3.30;;;;;;;14.29;92.32;99338.52;1706487;84;21829;-84
2021/06/10 01:06:40;;;;;;;6.83;3.35;;;;;;;14.22;93.42;99336.91;1706382;84;21224;-84
2021/06/10 01:09:59;;;;;;;13.53;3.80;;;;;;;14.12;92.95;99328.31;1706385;84;21331;-84
2021/06/10 01:13:33;;;;;;;6.78;3.05;;;;;;;14.11;93.44;99332.11;1704943;84;21187;-84
2021/06/10 01:16:42;;;;;;;12.88;3.33;;;;;;;14.10;93.82;99329.89;1627897;84;21302;-85
2021/06/10 01:20:13;;;;;;;8.75;5.22;;;;;;;14.08;93.51;99329.82;1706290;84;21302;-84
2021/06/10 01:24:09;;;;;;;7.20;4.30;;;;;;;14.08;93.21;99332.57;1706418;84;21283;-84
2021/06/10 01:27:22;;;;;;;6.17;4.35;;;;;;;14.06;93.14;99340.48;1706210;84;21298;-84
2021/06/10 01:30:35;;;;;;;6.53;3.60;;;;;;;14.08;93.99;99345.78;1703676;83;21322;-84
2021/06/10 01:33:46;;;;;;;6.78;3.37;;;;;;;14.09;94.52;99343.34;1706334;84;21208;-84
2021/06/10 01:36:52;;;;;;;5.03;2.47;;;;;;;14.09;95.33;99341.12;1706530;84;21873;-84
2021/06/10 01:39:58;;;;;;;4.85;2.98;;;;;;;14.10;96.19;99338.67;1686726;84;21893;-84
2021/06/10 01:43:03;;;;;;;4.25;2.98;;;;;;;14.09;96.87;99324.63;1686418;84;21159;-84
2021/06/10 01:46:11;;;;;;;4.83;2.77;;;;;;;14.10;96.90;99334.55;1706374;84;21347;-84
2021/06/10 01:49:18;;;;;;;5.00;2.52;;;;;;;14.13;96.58;99332.74;1707513;82;21322;-84
2021/06/10 01:52:22;;;;;;;6.78;2.87;;;;;;;14.10;95.60;99334.55;1706861;84;21294;-84
2021/06/10 01:55:31;;;;;;;5.25;3.70;;;;;;;14.12;95.30;99331.06;1706854;84;21217;-84
2021/06/10 01:58:40;;;;;;;5.65;3.17;;;;;;;14.21;95.50;99329.19;1706635;84;21315;-84
2021/06/10 02:01:42;;;;;;;5.28;1.90;;;;;;;14.41;95.73;99344.15;1706833;84;21192;-84
2021/06/10 02:04:48;;;;;;;3.25;2.27;;;;;;;14.61;95.44;99346.75;1685610;84;21242;-84
2021/06/10 02:07:54;;;;;;;4.42;2.58;;;;;;;14.78;94.71;99347.02;1706894;84;21318;-84
2021/06/10 02:11:02;;;;;;;3.62;2.83;;;;;;;14.92;93.33;99343.06;1685684;84;21314;-84
2021/06/10 02:14:07;;;;;;;10.15;3.55;;;;;;;15.13;92.57;99348.65;1680317;84;21295;-84
2021/06/10 02:17:14;;;;;;;6.00;3.17;;;;;;;15.28;90.81;99344.96;1706452;84;21773;-84
2021/06/10 02:20:22;;;;;;;3.02;2.77;;;;;;;15.54;90.06;99347.94;1706932;84;21314;-84
2021/06/10 02:23:28;;;;;;;3.80;3.08;;;;;;;15.97;89.12;99348.88;1706936;84;21294;-84
2021/06/10 02:26:33;;;;;;;7.00;3.67;;;;;;;16.42;87.04;99343.71;1706791;84;21302;-84
2021/06/10 02:29:40;;;;;;;8.80;3.50;;;;;;;16.83;84.93;99350.23;1706442;84;21256;-83
2021/06/10 02:32:45;;;;;;;4.05;3.60;;;;;;;17.03;82.57;99349.34;1706955;84;21298;-84
2021/06/10 02:35:50;;;;;;;3.80;2.92;;;;;;;17.18;81.62;99352.98;1706974;84;21338;-84
2021/06/10 02:39:04;;;;;;;2.80;2.37;;;;;;;17.42;81.03;99350.17;1685486;84;21183;-84
2021/06/10 02:42:10;;;;;;;2.98;2.65;;;;;;;17.80;80.52;99346.28;1680493;84;21349;-84
2021/06/10 02:45:17;;;;;;;5.95;2.62;;;;;;;18.26;79.35;99344.92;1707070;84;21730;-84
2021/06/10 02:48:23;;;;;;;10.30;3.30;;;;;;;18.67;78.12;99351.96;1706973;84;21327;-84
2021/06/10 02:51:28;;;;;;;4.67;2.72;;;;;;;19.04;76.99;99353.67;1680937;84;21319;-84
2021/06/10 02:54:34;;;;;;;5.83;2.70;;;;;;;19.50;75.67;99348.77;1701467;84;21239;-85
2021/06/10 02:57:39;;;;;;;3.87;2.50;;;;;;;19.97;74.36;99355.17;1673694;84;21334;-85
2021/06/10 03:00:47;;;;;;;5.15;2.70;;;;;;;20.42;73.03;99356.75;1700219;84;21223;-85
2021/06/10 03:03:54;;;;;;;7.47;2.50;;;;;;;20.84;71.73;99361.54;1701723;84;21296;-85
2021/06/10 03:07:01;;;;;;;7.62;2.50;;;;;;;21.26;69.80;99362.09;1701473;84;21216;-84
2021/06/10 03:10:05;;;;;;;7.90;2.70;;;;;;;21.54;68.16;99359.49;1701251;84;22012;-84
2021/06/10 03:13:11;;;;;;;8.40;2.70;;;;;;;21.53;67.27;99359.22;1701057;84;21625;-85
2021/06/10 03:16:16;;;;;;;6.80;2.33;;;;;;;21.31;67.15;99363.55;1701715;83;21207;-85
2021/06/10 03:19:25;;;;;;;4.83;2.50;;;;;;;21.27;67.74;99364.63;1671713;86;21341;-84
2021/06/10 03:22:31;;;;;;;3.55;2.02;;;;;;;21.36;67.83;99362.18;1670315;86;21855;-85
2021/06/10 03:25:37;;;;;;;5.15;2.50;;;;;;;21.48;68.23;99355.86;1670955;86;21272;-84
2021/06/10 03:28:43;;;;;;;7.70;3.27;;;;;;;21.64;68.18;99350.66;1698996;83;21147;-85
2021/06/10 03:31:49;;;;;;;7.15;2.67;;;;;;;21.87;68.27;99348.48;1701085;84;21235;-85
2021/06/10 03:34:56;;;;;;;4.28;2.67;;;;;;;22.11;68.52;99352.50;1700941;84;21334;-85
2021/06/10 03:38:00;;;;;;;5.53;3.10;;;;;;;22.33;68.78;99356.42;1701664;84;21287;-85
2021/06/10 03:41:05;;;;;;;5.05;2.60;;;;;;;22.60;68.34;99350.59;1696205;84;21818;-85
2021/06/10 03:44:11;;;;;;;7.60;3.00;;;;;;;22.86;67.71;99353.36;1734169;83;21261;-85
2021/06/10 03:47:15;;;;;;;5.25;3.00;;;;;;;23.10;67.00;99353.63;1701475;84;21287;-85
2021/06/10 03:50:21;;;;;;;4.28;3.12;;;;;;;23.30;66.42;99352.78;1701597;84;21306;-85
2021/06/10 03:53:27;;;;;;;6.58;3.55;;;;;;;23.37;66.12;99349.11;1673121;84;21355;-85
2021/06/10 03:56:32;;;;;;;12.90;4.28;;;;;;;23.41;66.45;99345.47;1701618;84;21291;-85
2021/06/10 03:59:36;;;;;;;6.95;4.15;;;;;;;23.48;66.13;99339.61;1673130;86;21358;-85
2021/06/10 04:02:43;;;;;;;8.23;4.75;;;;;;;23.58;65.83;99338.16;1676893;83;21190;-84
2021/06/10 04:05:49;;;;;;;11.63;4.65;;;;;;;23.73;65.41;99345.66;1701377;84;21702;-84
2021/06/10 04:08:55;;;;;;;7.90;5.15;;;;;;;23.86;65.06;99347.84;1720701;83;21163;-84
2021/06/10 04:12:01;;;;;;;15.93;7.55;;;;;;;23.92;64.66;99336.91;1701696;84;21862;-84
2021/06/10 04:15:06;;;;;;;13.48;6.50;;;;;;;23.94;63.94;99346.38;1673416;86;21330;-84
2021/06/10 04:18:18;;;;;;;18.15;8.95;;;;;;;23.95;63.03;99348.91;1688338;84;21267;-85
2021/06/10 04:21:21;;;;;;;22.67;9.13;;;;;;;23.89;62.58;99347.25;1701414;84;21187;-85
2021/06/10 04:24:25;;;;;;;25.60;10.93;;;;;;;23.76;62.71;99356.27;1701450;84;21322;-85
2021/06/10 04:27:30;;;;;;;26.35;12.47;;;;;;;23.59;63.34;99347.38;1716729;82;21262;-84
2021/06/10 04:30:35;;;;;;;28.02;13.68;;;;;;;23.43;62.63;99354.41;1717984;83;21277;-84
2021/06/10 04:33:40;;;;;;;24.00;11.68;;;;;;;23.18;63.19;99352.50;1703401;83;21281;-85
2021/06/10 04:36:45;;;;;;;18.37;11.05;;;;;;;23.11;65.04;99356.73;1714449;83;21287;-84
2021/06/10 04:39:52;;;;;;;20.65;11.08;;;;;;;23.08;64.28;99353.09;1719036;82;21322;-85
2021/06/10 04:42:56;;;;;;;20.82;10.70;;;;;;;23.02;65.47;99359.25;1732053;82;21324;-84
2021/06/10 04:46:03;;;;;;;31.15;9.40;;;;;;;22.97;64.96;99360.65;1677277;84;21184;-84
2021/06/10 04:49:11;;;;;;;11.35;6.70;;;;;;;22.85;64.87;99361.45;1701029;84;21300;-84
2021/06/10 04:52:16;;;;;;;5.80;3.87;;;;;;;22.84;63.60;99363.97;1695230;81;21912;-85
2021/06/10 04:55:21;;;;;;;4.67;3.40;;;;;;;22.83;61.54;99356.73;1724489;83;21886;-84
2021/06/10 04:58:28;;;;;;;7.47;3.37;;;;;;;22.83;62.03;99364.53;1695083;84;21189;-85
2021/06/10 05:01:33;;;;;;;9.28;2.95;;;;;;;22.77;62.08;99377.34;1711126;83;21306;-85
2021/06/10 05:04:40;;;;;;;4.78;2.62;;;;;;;22.62;62.21;99369.25;1691387;83;21945;-85
2021/06/10 05:07:46;;;;;;;6.30;2.35;;;;;;;22.58;61.20;99368.14;1702449;82;21240;-85
2021/06/10 05:10:56;;;;;;;4.45;2.30;;;;;;;22.54;61.95;99376.80;1704495;82;21344;-85
2021/06/10 05:14:01;;;;;;;4.87;2.65;;;;;;;22.58;61.23;99375.10;1696073;83;21841;-85
2021/06/10 05:17:07;;;;;;;8.33;3.00;;;;;;;22.70;61.10;99372.89;1699135;82;21322;-84
2021/06/10 05:20:14;;;;;;;7.60;2.58;;;;;;;22.85;61.26;99372.05;1686270;82;21322;-84
2021/06/10 05:23:20;;;;;;;4.40;3.30;;;;;;;22.93;61.52;99374.31;1686199;83;21767;-84
2021/06/10 05:26:27;;;;;;;5.50;2.67;;;;;;;23.01;60.95;99371.52;1682180;83;21294;-84
2021/06/10 05:29:32;;;;;;;3.65;2.45;;;;;;;23.18;60.74;99366.45;1682578;83;21248;-84
2021/06/10 05:32:40;;;;;;;6.45;2.12;;;;;;;23.28;59.64;99363.36;1688473;82;21306;-84
2021/06/10 05:35:47;;;;;;;5.53;2.40;;;;;;;23.21;59.94;99361.72;1664222;83;21369;-85
2021/06/10 05:38:55;;;;;;;3.20;2.35;;;;;;;23.24;59.71;99370.63;1676438;83;21341;-85
2021/06/10 05:42:01;;;;;;;2.58;1.80;;;;;;;23.38;57.45;99371.70;1683185;83;21362;-85
2021/06/10 05:45:07;;;;;;;6.00;2.50;;;;;;;23.53;56.14;99367.49;1679643;83;21184;-85
2021/06/10 05:48:17;;;;;;;4.33;2.33;;;;;;;23.61;55.99;99369.67;1676742;83;21298;-85
2021/06/10 05:51:23;;;;;;;3.42;2.12;;;;;;;23.64;56.19;99371.94;1680307;83;21712;-84
2021/06/10 05:54:44;;;;;;;6.15;2.10;;;;;;;23.66;56.09;99370.25;1686930;82;21492;-85
2021/06/10 05:57:55;;;;;;;3.92;2.67;;;;;;;23.80;56.31;99370.47;1659884;84;21842;-84
2021/06/10 06:01:00;;;;;;;3.77;2.40;;;;;;;23.87;56.38;99370.45;1684041;82;21298;-84
2021/06/10 06:04:19;;;;;;;5.30;2.90;;;;;;;23.91;55.02;99374.34;1690201;82;21211;-85
2021/06/10 06:07:26;;;;;;;7.42;3.40;;;;;;;24.03;54.67;99378.17;1686674;82;21356;-84
2021/06/10 06:10:36;;;;;;;8.05;4.20;;;;;;;24.14;54.16;99370.03;1688716;82;21215;-84
2021/06/10 06:13:45;;;;;;;5.22;3.62;;;;;;;24.20;54.16;99368.87;1690619;82;21333;-83
2021/06/10 06:16:57;;;;;;;6.42;3.87;;;;;;;24.16;53.95;99369.73;1655275;83;21564;-84
2021/06/10 06:20:08;;;;;;;6.12;3.70;;;;;;;24.18;53.18;99370.27;1695027;83;21188;-83
2021/06/10 06:23:29;;;;;;;9.58;4.15;;;;;;;24.27;52.68;99363.51;1670657;82;21713;-84
2021/06/10 06:26:34;;;;;;;6.28;3.67;;;;;;;24.31;52.71;99371.59;1689205;82;21199;-84
2021/06/10 06:29:47;;;;;;;13.10;5.25;;;;;;;24.30;53.19;99372.72;1697049;83;21679;-81
2021/06/10 06:32:58;;;;;;;11.53;4.58;;;;;;;24.43;53.67;99373.51;1703347;83;21288;-82
2021/06/10 06:36:06;;;;;;;15.00;4.40;;;;;;;24.54;53.57;99381.25;1713481;82;21880;-84
2021/06/10 06:39:18;;;;;;;6.92;3.52;;;;;;;24.58;51.73;99378.98;1684166;82;21212;-83
2021/06/10 06:42:22;;;;;;;8.15;3.70;;;;;;;24.57;52.69;99377.31;1714717;79;21144;-83
2021/06/10 06:45:29;;;;;;;4.15;2.75;;;;;;;24.53;52.30;99374.83;1674838;84;21671;-82
2021/06/10 06:48:35;;;;;;;4.55;2.65;;;;;;;24.52;51.84;99375.95;1695527;82;21330;-83
2021/06/10 06:51:39;;;;;;;5.60;3.05;;;;;;;24.56;52.34;99376.19;1701815;81;21240;-84
2021/06/10 06:54:44;;;;;;;6.58;3.20;;;;;;;24.59;52.67;99371.42;1708527;80;21970;-84
2021/06/10 06:57:49;;;;;;;6.05;3.20;;;;;;;24.72;52.20;99375.79;1725519;81;21255;-84
2021/06/10 07:00:59;;;;;;;3.55;2.77;;;;;;;24.94;52.36;99380.09;1724196;81;21246;-84
2021/06/10 07:04:07;;;;;;;3.20;2.42;;;;;;;25.24;51.76;99374.78;1710151;81;21846;-85
2021/06/10 07:07:12;;;;;;;5.35;2.05;;;;;;;25.57;51.89;99381.98;1710927;81;21325;-82
2021/06/10 07:10:18;;;;;;;4.97;2.27;;;;;;;25.82;50.14;99382.27;1716739;81;22019;-83
2021/06/10 07:13:25;;;;;;;5.58;2.55;;;;;;;26.04;49.76;99381.71;1709838;81;21427;-85
2021/06/10 07:16:30;;;;;;;2.77;2.17;;;;;;;26.13;49.46;99384.94;1683710;83;21331;-85
2021/06/10 07:19:37;;;;;;;4.87;1.90;;;;;;;26.11;50.23;99380.22;1711753;82;21633;-84
2021/06/10 07:22:46;;;;;;;9.88;2.77;;;;;;;26.16;49.87;99382.95;1719308;81;21336;-84
2021/06/10 07:25:52;;;;;;;4.77;2.40;;;;;;;26.21;49.10;99384.84;1712409;81;21736;-84
2021/06/10 07:28:57;;;;;;;5.90;2.30;;;;;;;26.25;48.92;99381.13;1712168;81;21403;-90
2021/06/10 07:32:04;;;;;;;5.75;2.80;;;;;;;26.12;49.33;99379.08;1713149;81;21260;-91
2021/06/10 07:35:12;;;;;;;4.58;2.62;;;;;;;26.07;48.54;99375.52;1700816;81;22102;-90
2021/06/10 07:38:18;;;;;;;7.53;2.55;;;;;;;26.11;48.19;99373.75;1715631;81;21189;-90
2021/06/10 07:41:22;;;;;;;14.93;4.03;;;;;;;26.19;47.78;99371.11;1718203;81;21348;-92
2021/06/10 07:44:28;;;;;;;4.67;2.70;;;;;;;26.31;47.66;99371.25;1715364;81;21225;-86
2021/06/10 07:47:33;;;;;;;9.65;3.33;;;;;;;26.34;47.10;99370.63;1712096;81;21905;-87
2021/06/10 07:50:38;;;;;;;8.98;3.40;;;;;;;26.29;47.67;99372.93;1711627;81;21917;-87
2021/06/10 07:53:45;;;;;;;6.10;3.10;;;;;;;26.16;48.64;99371.73;1714213;81;21855;-86
2021/06/10 07:56:52;;;;;;;5.12;3.50;;;;;;;26.02;50.27;99382.02;1689957;82;21189;-87
2021/06/10 07:59:57;;;;;;;6.30;3.70;;;;;;;25.84;50.25;99378.05;1669376;82;21203;-87
2021/06/10 08:03:03;;;;;;;7.12;3.08;;;;;;;25.74;50.86;99378.98;1688466;82;21251;-86
2021/06/10 08:06:10;;;;;;;9.85;3.58;;;;;;;25.63;50.65;99376.58;1670367;82;21750;-87
2021/06/10 08:09:16;;;;;;;5.42;3.40;;;;;;;25.53;50.63;99380.34;1655768;82;21718;-86
2021/06/10 08:12:22;;;;;;;6.92;3.87;;;;;;;25.69;50.76;99381.02;1688086;82;21314;-88
2021/06/10 08:15:27;;;;;;;4.00;2.85;;;;;;;25.99;51.65;99368.03;1683314;82;21211;-87
2021/06/10 08:18:34;;;;;;;5.85;3.30;;;;;;;26.42;49.65;99367.14;1680121;82;21357;-87
2021/06/10 08:21:39;;;;;;;6.40;3.45;;;;;;;26.65;48.80;99367.64;1680424;82;21314;-86
2021/06/10 08:24:45;;;;;;;9.00;4.90;;;;;;;26.68;48.13;99367.05;1683727;82;21344;-85
2021/06/10 08:27:50;;;;;;;11.00;4.92;;;;;;;26.53;47.92;99370.07;1662052;82;21903;-85
2021/06/10 08:30:56;;;;;;;6.20;4.17;;;;;;;26.32;48.24;99371.50;1683200;82;21346;-86
2021/06/10 08:34:02;;;;;;;13.95;4.30;;;;;;;26.09;49.32;99368.45;1684129;82;21828;-86
2021/06/10 08:37:07;;;;;;;8.93;4.87;;;;;;;26.03;49.95;99367.44;1644203;82;21310;-90
2021/06/10 08:40:15;;;;;;;7.22;4.30;;;;;;;26.14;49.39;99365.58;1683991;82;21915;-92
2021/06/10 08:43:25;;;;;;;8.65;4.10;;;;;;;26.33;49.02;99360.55;1679874;82;21619;-92
2021/06/10 08:46:31;;;;;;;5.22;3.50;;;;;;;26.58;48.59;99360.17;1663201;82;21790;-90
2021/06/10 08:49:44;;;;;;;9.28;4.40;;;;;;;26.82;50.78;99359.22;1666083;82;21298;-91
2021/06/10 08:52:46;;;;;;;9.93;4.45;;;;;;;26.86;51.13;99357.47;1684373;82;21344;-91
2021/06/10 08:55:54;;;;;;;7.62;4.03;;;;;;;26.89;53.24;99356.87;1684420;82;21362;-90
2021/06/10 08:58:58;;;;;;;10.40;3.98;;;;;;;27.05;51.58;99349.83;1683696;83;21366;-91
2021/06/10 09:02:04;;;;;;;9.05;4.47;;;;;;;27.17;53.66;99348.80;1685815;82;21316;-89
2021/06/10 09:05:15;;;;;;;8.45;3.85;;;;;;;27.13;52.32;99353.37;1685996;84;21337;-89
2021/06/10 09:08:21;;;;;;;5.95;3.83;;;;;;;27.01;50.16;99347.41;1682984;82;21862;-90
2021/06/10 09:11:31;;;;;;;8.50;4.00;;;;;;;26.74;50.04;99336.36;1675782;83;21910;-89
2021/06/10 09:14:37;;;;;;;7.85;3.95;;;;;;;26.42;49.75;99340.51;1687485;82;21880;-87
2021/06/10 09:17:46;;;;;;;14.23;3.65;;;;;;;26.12;49.97;99339.02;1688169;82;21347;-87
2021/06/10 09:20:52;;;;;;;7.12;3.98;;;;;;;25.86;51.95;99338.52;1690072;82;21701;-86
2021/06/10 09:23:57;;;;;;;7.78;3.58;;;;;;;25.64;54.29;99341.30;1691885;82;21286;-88
2021/06/10 09:27:18;;;;;;;8.95;4.87;;;;;;;25.42;54.14;99339.61;1678203;82;21243;-87
2021/06/10 09:30:36;;;;;;;9.90;3.85;;;;;;;25.26;54.39;99336.13;1687064;82;21325;-87
2021/06/10 09:33:51;;;;;;;7.03;3.85;;;;;;;25.18;53.87;99339.03;1691642;83;21334;-86
2021/06/10 09:37:19;;;;;;;8.58;3.83;;;;;;;25.14;53.96;99343.55;1686307;82;21187;-87
2021/06/10 09:40:29;;;;;;;6.78;3.67;;;;;;;25.11;53.97;99334.34;1689224;82;21306;-87
2021/06/10 09:43:35;;;;;;;6.83;3.60;;;;;;;25.13;53.73;99334.89;1690593;82;21273;-88
2021/06/10 09:46:40;;;;;;;11.20;3.83;;;;;;;25.15;53.61;99330.39;1682870;82;21208;-89
2021/06/10 09:49:46;;;;;;;9.03;3.62;;;;;;;25.18;54.28;99331.20;1655656;83;21339;-84
2021/06/10 09:53:01;;;;;;;9.28;3.50;;;;;;;25.30;53.86;99323.78;1685218;82;21720;-87
2021/06/10 09:56:15;;;;;;;6.67;3.17;;;;;;;25.48;53.01;99325.81;1672406;82;21891;-89
2021/06/10 09:59:21;;;;;;;8.13;3.80;;;;;;;25.62;52.14;99325.35;1686847;82;21365;-88
2021/06/10 10:02:31;;;;;;;7.92;3.22;;;;;;;25.81;52.03;99314.78;1669429;82;21366;-85
2021/06/10 10:05:43;;;;;;;6.17;3.52;;;;;;;25.74;52.52;99307.56;1667887;82;21692;-86
2021/06/10 10:08:49;;;;;;;5.22;3.55;;;;;;;25.33;54.03;99307.23;1651278;82;21310;-84
2021/06/10 10:11:54;;;;;;;5.08;3.37;;;;;;;25.03;54.99;99307.00;1654649;82;21841;-84
2021/06/10 10:15:04;;;;;;;7.90;3.62;;;;;;;24.79;56.09;99304.13;1657695;82;21305;-84
2021/06/10 10:18:10;;;;;;;5.35;2.98;;;;;;;24.60;56.03;99294.81;1686205;82;21359;-84
2021/06/10 10:21:16;;;;;;;3.77;2.50;;;;;;;24.73;54.72;99292.17;1682069;82;21345;-84
2021/06/10 10:24:27;;;;;;;2.95;2.20;;;;;;;24.96;55.21;99297.53;1650482;82;21306;-86
2021/06/10 10:27:34;;;;;;;9.05;2.55;;;;;;;25.26;53.90;99300.32;1682047;82;21243;-85
2021/06/10 10:30:39;;;;;;;5.35;2.10;;;;;;;25.51;54.59;99287.44;1676902;82;21335;-85
2021/06/10 10:33:52;;;;;;;6.00;2.75;;;;;;;25.74;52.63;99289.36;1656527;82;21721;-85
2021/06/10 10:36:58;;;;;;;3.92;2.00;;;;;;;25.93;52.06;99295.01;1675006;82;21373;-84
2021/06/10 10:40:03;;;;;;;3.60;2.40;;;;;;;26.24;51.32;99291.73;1656541;82;21208;-85
2021/06/10 10:43:20;;;;;;;5.97;2.40;;;;;;;26.39;50.34;99287.27;1679957;82;21309;-85
2021/06/10 10:46:28;;;;;;;9.73;3.00;;;;;;;26.34;50.20;99290.73;1678782;82;21640;-82
2021/06/10 10:49:37;;;;;;;8.43;2.55;;;;;;;26.18;50.53;99292.95;1686002;82;21319;-83
2021/06/10 10:52:42;;;;;;;13.55;2.70;;;;;;;26.14;51.50;99291.89;1684757;82;21287;-83
2021/06/10 10:55:49;;;;;;;6.55;2.60;;;;;;;26.35;52.36;99296.05;1680773;82;21903;-83
2021/06/10 10:59:17;;;;;;;17.40;2.45;;;;;;;26.62;51.65;99296.73;1673357;82;21326;-83
2021/06/10 11:02:28;;;;;;;4.37;2.47;;;;;;;26.86;50.56;99291.55;1686599;82;21982;-83
2021/06/10 11:05:38;;;;;;;3.62;2.20;;;;;;;27.07;49.77;99283.59;1665248;82;21220;-84
2021/06/10 11:09:20;;;;;;;4.03;1.92;;;;;;;27.19;49.04;99280.55;1678889;82;22180;-84
2021/06/10 11:12:22;;;;;;;;;;;;;;;27.13;48.66;99280.40;1681046;82;21852;-84
2021/06/10 11:15:34;;;;;;;4.92;2.17;;;;;;;26.86;50.09;99276.12;1686678;83;20258;-84
2021/06/10 11:18:48;;;;;;;4.62;2.10;;;;;;;26.34;51.53;99276.14;1658005;83;21305;-84
2021/06/10 11:21:55;;;;;;;4.72;2.20;;;;;;;25.88;51.74;99278.28;1686794;83;21311;-83
2021/06/10 11:25:02;;;;;;;2.30;1.80;;;;;;;25.60;51.74;99278.64;1683900;82;21333;-84
2021/06/10 11:28:23;;;;;;;2.55;1.82;;;;;;;25.44;51.60;99275.75;1671461;82;21955;-84
2021/06/10 11:31:31;;;;;;;2.25;1.90;;;;;;;25.42;53.01;99275.23;1691726;82;21310;-85
2021/06/10 11:34:40;;;;;;;4.28;1.65;;;;;;;25.53;52.96;99269.75;1686364;82;21196;-84
2021/06/10 11:37:46;;;;;;;3.35;1.37;;;;;;;25.56;53.05;99267.77;1696733;83;21314;-84
2021/06/10 11:40:59;;;;;;;3.33;1.85;;;;;;;25.53;53.45;99265.56;1689355;83;21363;-85
2021/06/10 11:44:07;;;;;;;3.22;1.75;;;;;;;25.41;53.25;99262.37;1689071;83;21188;-84
2021/06/10 11:47:15;;;;;;;13.48;2.65;;;;;;;25.26;54.62;99264.77;1690566;83;21314;-84
2021/06/10 11:50:37;;;;;;;9.43;2.85;;;;;;;25.20;55.75;99262.61;1668560;83;21208;-85
2021/06/10 11:53:44;;;;;;;5.87;2.30;;;;;;;25.24;55.23;99258.66;1694097;83;21327;-85
2021/06/10 11:56:51;;;;;;;3.40;1.80;;;;;;;25.19;55.44;99263.75;1685990;83;21578;-85
2021/06/10 11:59:56;;;;;;;31.73;7.53;;;;;;;25.14;55.72;99266.61;1684705;83;21196;-85
2021/06/10 12:03:06;;;;;;;47.40;9.13;;;;;;;25.12;56.79;99266.63;1685133;83;21346;-85
2021/06/10 12:06:17;;;;;;;29.37;6.20;;;;;;;25.15;57.39;99259.05;1690762;83;21353;-85
2021/06/10 12:10:09;;;;;;;17.17;4.67;;;;;;;25.26;57.05;99263.94;1853407;76;22258;-82
2021/06/10 12:13:10;;;;;;;37.75;11.60;;;;;;;25.24;56.59;99269.28;1761068;80;21247;-82
2021/06/10 12:16:18;;;;;;;20.37;5.45;;;;;;;25.33;57.33;99255.47;1758208;80;21286;-83
2021/06/10 12:19:24;;;;;;;24.57;6.17;;;;;;;25.44;56.22;99254.76;1764019;80;21354;-83
2021/06/10 12:22:29;;;;;;;25.10;6.90;;;;;;;25.43;55.57;99253.09;1758494;80;21204;-83
2021/06/10 12:25:39;;;;;;;11.88;3.40;;;;;;;25.47;56.78;99258.37;1758457;80;21291;-83
2021/06/10 12:28:56;;;;;;;20.12;4.55;;;;;;;25.56;56.03;99258.54;1760083;80;21355;-82
2021/06/10 12:32:01;;;;;;;16.12;3.55;;;;;;;25.60;56.20;99253.44;1750177;80;21247;-82
2021/06/10 12:35:07;;;;;;;8.33;2.92;;;;;;;25.63;55.97;99247.22;1745134;80;21195;-82
2021/06/10 12:38:12;;;;;;;28.87;7.70;;;;;;;25.57;55.13;99252.63;1747442;81;21361;-82
2021/06/10 12:41:25;;;;;;;277.48;53.92;;;;;;;25.35;55.79;99253.76;1739158;81;21239;-82
2021/06/10 12:44:37;;;;;;;48.30;12.75;;;;;;;25.16;56.54;99255.94;1746889;81;21651;-82
2021/06/10 12:47:44;;;;;;;62.48;14.18;;;;;;;25.01;57.04;99258.89;1751783;81;21294;-84
2021/06/10 12:50:52;;;;;;;141.60;30.45;;;;;;;24.88;57.96;99253.99;1742839;81;21239;-85
2021/06/10 12:54:15;;;;;;;34.55;8.30;;;;;;;24.78;58.94;99248.52;1737347;81;21979;-83
2021/06/10 12:57:30;;;;;;;14.47;4.65;;;;;;;24.70;58.49;99250.84;1734445;81;21361;-83
2021/06/10 13:00:42;;;;;;;11.22;1.92;;;;;;;24.66;58.60;99249.76;1738570;81;21211;-83
2021/06/10 13:03:58;;;;;;;4.92;2.12;;;;;;;24.60;57.73;99245.89;1736073;81;21369;-83
2021/06/10 13:07:06;;;;;;;5.50;2.30;;;;;;;24.53;59.08;99239.26;1761906;80;21825;-83
2021/06/10 13:10:18;;;;;;;5.65;1.90;;;;;;;24.54;59.52;99231.14;1715498;81;21201;-83
2021/06/10 13:13:39;;;;;;;11.35;2.30;;;;;;;24.54;59.71;99229.73;1786859;79;21152;-83
2021/06/10 13:17:00;;;;;;;6.15;1.87;;;;;;;24.51;60.25;99236.47;1792591;78;21279;-83
2021/06/10 13:20:05;;;;;;;4.42;2.05;;;;;;;24.47;58.55;99231.48;1778028;79;21279;-83
2021/06/10 13:23:12;;;;;;;5.90;2.05;;;;;;;24.55;58.93;99228.60;1783482;79;21165;-83
2021/06/10 13:26:33;;;;;;;4.08;2.00;;;;;;;24.72;59.26;99225.38;1777961;79;21532;-83
2021/06/10 13:29:35;;;;;;;4.80;2.50;;;;;;;24.86;57.71;99233.89;1783085;79;21192;-84
2021/06/10 13:32:43;;;;;;;5.55;2.80;;;;;;;24.86;58.88;99247.88;1782493;79;21301;-85
2021/06/10 13:35:50;;;;;;;6.55;3.20;;;;;;;24.79;59.37;99245.98;1788599;79;21545;-84
2021/06/10 13:38:55;;;;;;;26.37;4.08;;;;;;;24.78;60.04;99240.13;1780691;78;21286;-83
2021/06/10 13:42:01;;;;;;;4.70;2.58;;;;;;;24.84;59.86;99237.53;1774644;79;21173;-83
2021/06/10 13:45:07;;;;;;;8.45;2.95;;;;;;;24.89;59.10;99252.32;1799169;79;21401;-81
2021/06/10 13:48:13;;;;;;;6.33;3.00;;;;;;;24.97;59.13;99252.22;1800657;79;21854;-81
2021/06/10 13:51:19;;;;;;;7.28;2.47;;;;;;;24.84;59.52;99255.70;1801467;79;21283;-84
2021/06/10 13:54:24;;;;;;;4.83;2.20;;;;;;;24.60;58.53;99252.88;1798441;79;21280;-83
2021/06/10 13:57:30;;;;;;;3.12;1.95;;;;;;;24.44;57.90;99248.84;1790540;80;21748;-84
2021/06/10 14:00:35;;;;;;;5.15;2.20;;;;;;;24.35;57.52;99240.78;1719534;83;21403;-83
2021/06/10 14:03:40;;;;;;;4.30;2.52;;;;;;;24.25;57.26;99238.08;1737918;82;21858;-84
2021/06/10 14:06:46;;;;;;;5.20;3.33;;;;;;;24.11;59.24;99233.72;1737570;82;21181;-84
2021/06/10 14:09:52;;;;;;;6.35;3.98;;;;;;;24.02;60.82;99230.45;1740874;82;21398;-84
2021/06/10 14:12:57;;;;;;;8.83;4.10;;;;;;;23.89;61.52;99229.13;1750240;82;21351;-83
2021/06/10 14:16:04;;;;;;;16.90;6.62;;;;;;;23.70;61.91;99224.23;1749416;82;21288;-83
2021/06/10 14:19:18;;;;;;;9.23;4.17;;;;;;;23.40;64.36;99223.83;1749115;82;21322;-84
2021/06/10 14:22:19;;;;;;;5.30;2.85;;;;;;;23.19;64.94;99234.80;1749199;82;21354;-83
2021/06/10 14:25:17;;;;;;;2.87;1.82;;;;;;;22.96;64.25;99233.52;1749754;82;21825;-84
2021/06/10 14:28:22;;;;;;;3.92;1.82;;;;;;;22.80;62.38;99247.16;1751644;82;21305;-83
2021/06/10 14:34:51;;;;;;;14.15;2.77;;;;;;;22.77;63.38;99288.14;1720867;83;21287;-83
2021/06/10 14:37:57;;;;;;;6.95;1.85;;;;;;;22.74;67.06;99309.63;1719472;83;21303;-84
2021/06/10 14:41:03;;;;;;;5.58;2.27;;;;;;;22.37;65.67;99309.35;1719813;83;21208;-83
2021/06/10 14:44:10;;;;;;;5.35;1.92;;;;;;;21.57;66.84;99293.02;1724400;82;21283;-83
2021/06/10 14:47:15;;;;;;;3.05;1.40;;;;;;;20.90;70.15;99276.56;1749212;82;22318;-83